sensor_id;sensor_type;location;lat;lon;timestamp;P1;durP1;ratioP1;P2;durP2;ratioP2
10458;SDS011;5277;48.722;8.736;2023-06-22T00:00:56;8.63;;;6.55;;
10458;SDS011;5277;48.722;8.736;2023-06-22T00:03:23;9.30;;;6.47;;
10458;SDS011;5277;48.722;8.736;2023-06-22T00:05:50;7.47;;;6.70;;
10458;SDS011;5277;48.722;8.736;2023-06-22T00:08:17;6.68;;;5.63;;
10458;SDS011;5277;48.722;8.736;2023-06-22T00:10:43;10.68;;;7.18;;
10458;SDS011;5277;48.722;8.736;2023-06-22T00:13:10;9.80;;;6.70;;
10458;SDS011;5277;48.722;8.736;2023-06-22T00:15:37;9.50;;;7.38;;
10458;SDS011;5277;48.722;8.736;2023-06-22T00:18:04;8.20;;;6.82;;
10458;SDS011;5277;48.722;8.736;2023-06-22T00:20:34;12.00;;;6.88;;
10458;SDS011;5277;48.722;8.736;2023-06-22T00:23:02;12.82;;;7.38;;
10458;SDS011;5277;48.722;8.736;2023-06-22T00:25:37;8.43;;;6.53;;
10458;SDS011;5277;48.722;8.736;2023-06-22T00:28:05;10.52;;;6.97;;
10458;SDS011;5277;48.722;8.736;2023-06-22T00:30:31;8.23;;;6.32;;
10458;SDS011;5277;48.722;8.736;2023-06-22T00:32:57;8.48;;;6.60;;
10458;SDS011;5277;48.722;8.736;2023-06-22T00:35:24;7.50;;;6.13;;
10458;SDS011;5277;48.722;8.736;2023-06-22T00:37:58;10.40;;;6.90;;
10458;SDS011;5277;48.722;8.736;2023-06-22T00:40:30;9.07;;;6.78;;
10458;SDS011;5277;48.722;8.736;2023-06-22T00:42:57;9.52;;;6.93;;
10458;SDS011;5277;48.722;8.736;2023-06-22T00:45:23;11.98;;;7.03;;
10458;SDS011;5277;48.722;8.736;2023-06-22T00:47:52;7.25;;;6.45;;
10458;SDS011;5277;48.722;8.736;2023-06-22T00:50:21;8.02;;;6.30;;
10458;SDS011;5277;48.722;8.736;2023-06-22T00:52:48;10.05;;;6.57;;
10458;SDS011;5277;48.722;8.736;2023-06-22T00:55:18;7.70;;;6.47;;
10458;SDS011;5277;48.722;8.736;2023-06-22T00:57:45;8.05;;;6.57;;
10458;SDS011;5277;48.722;8.736;2023-06-22T01:00:12;10.23;;;6.93;;
10458;SDS011;5277;48.722;8.736;2023-06-22T01:02:43;7.45;;;6.47;;
10458;SDS011;5277;48.722;8.736;2023-06-22T01:05:14;13.27;;;7.10;;
10458;SDS011;5277;48.722;8.736;2023-06-22T01:07:49;7.75;;;6.80;;
10458;SDS011;5277;48.722;8.736;2023-06-22T01:13:40;8.10;;;6.85;;
10458;SDS011;5277;48.722;8.736;2023-06-22T01:16:16;7.45;;;6.28;;
10458;SDS011;5277;48.722;8.736;2023-06-22T01:18:50;7.63;;;6.20;;
10458;SDS011;5277;48.722;8.736;2023-06-22T01:21:20;8.88;;;6.43;;
10458;SDS011;5277;48.722;8.736;2023-06-22T01:29:51;8.13;;;6.90;;
10458;SDS011;5277;48.722;8.736;2023-06-22T01:32:25;7.53;;;6.70;;
10458;SDS011;5277;48.722;8.736;2023-06-22T01:35:01;8.02;;;6.55;;
10458;SDS011;5277;48.722;8.736;2023-06-22T01:37:30;8.63;;;7.30;;
10458;SDS011;5277;48.722;8.736;2023-06-22T01:39:57;6.97;;;6.28;;
10458;SDS011;5277;48.722;8.736;2023-06-22T01:42:24;8.50;;;6.70;;
10458;SDS011;5277;48.722;8.736;2023-06-22T01:44:51;9.60;;;6.85;;
10458;SDS011;5277;48.722;8.736;2023-06-22T01:47:18;8.30;;;6.80;;
10458;SDS011;5277;48.722;8.736;2023-06-22T01:49:45;12.07;;;10.55;;
10458;SDS011;5277;48.722;8.736;2023-06-22T01:52:11;11.32;;;7.82;;
10458;SDS011;5277;48.722;8.736;2023-06-22T01:54:37;10.73;;;8.10;;
10458;SDS011;5277;48.722;8.736;2023-06-22T01:57:05;11.77;;;9.75;;
10458;SDS011;5277;48.722;8.736;2023-06-22T02:00:04;13.95;;;8.00;;
10458;SDS011;5277;48.722;8.736;2023-06-22T02:02:30;9.23;;;7.20;;
10458;SDS011;5277;48.722;8.736;2023-06-22T02:05:03;10.45;;;7.47;;
10458;SDS011;5277;48.722;8.736;2023-06-22T02:07:34;9.63;;;6.22;;
10458;SDS011;5277;48.722;8.736;2023-06-22T02:10:04;8.50;;;6.82;;
10458;SDS011;5277;48.722;8.736;2023-06-22T02:12:32;8.70;;;6.90;;
10458;SDS011;5277;48.722;8.736;2023-06-22T02:14:59;8.25;;;6.93;;
10458;SDS011;5277;48.722;8.736;2023-06-22T02:17:26;8.15;;;6.47;;
10458;SDS011;5277;48.722;8.736;2023-06-22T02:19:51;7.80;;;6.72;;
10458;SDS011;5277;48.722;8.736;2023-06-22T02:22:17;7.28;;;6.50;;
10458;SDS011;5277;48.722;8.736;2023-06-22T02:24:43;9.65;;;7.32;;
10458;SDS011;5277;48.722;8.736;2023-06-22T02:27:08;9.70;;;6.38;;
10458;SDS011;5277;48.722;8.736;2023-06-22T02:29:35;8.70;;;6.65;;
10458;SDS011;5277;48.722;8.736;2023-06-22T02:32:01;10.30;;;6.50;;
10458;SDS011;5277;48.722;8.736;2023-06-22T02:34:27;8.48;;;6.75;;
10458;SDS011;5277;48.722;8.736;2023-06-22T02:36:52;8.25;;;6.13;;
10458;SDS011;5277;48.722;8.736;2023-06-22T02:39:22;9.10;;;6.88;;
10458;SDS011;5277;48.722;8.736;2023-06-22T02:41:49;10.23;;;6.75;;
10458;SDS011;5277;48.722;8.736;2023-06-22T02:44:15;7.07;;;6.38;;
10458;SDS011;5277;48.722;8.736;2023-06-22T02:46:42;10.15;;;6.78;;
10458;SDS011;5277;48.722;8.736;2023-06-22T02:49:07;10.70;;;6.68;;
10458;SDS011;5277;48.722;8.736;2023-06-22T02:51:33;9.68;;;6.93;;
10458;SDS011;5277;48.722;8.736;2023-06-22T02:53:59;11.10;;;6.40;;
10458;SDS011;5277;48.722;8.736;2023-06-22T02:56:25;9.57;;;6.50;;
10458;SDS011;5277;48.722;8.736;2023-06-22T02:58:51;7.65;;;6.18;;
10458;SDS011;5277;48.722;8.736;2023-06-22T03:01:17;9.38;;;6.78;;
10458;SDS011;5277;48.722;8.736;2023-06-22T03:03:49;10.88;;;7.13;;
10458;SDS011;5277;48.722;8.736;2023-06-22T03:06:15;8.80;;;6.75;;
10458;SDS011;5277;48.722;8.736;2023-06-22T03:08:40;10.43;;;6.40;;
10458;SDS011;5277;48.722;8.736;2023-06-22T03:11:06;11.23;;;7.18;;
10458;SDS011;5277;48.722;8.736;2023-06-22T03:13:32;8.90;;;6.95;;
10458;SDS011;5277;48.722;8.736;2023-06-22T03:15:58;10.35;;;6.72;;
10458;SDS011;5277;48.722;8.736;2023-06-22T03:18:24;9.55;;;6.97;;
10458;SDS011;5277;48.722;8.736;2023-06-22T03:20:49;10.50;;;7.28;;
10458;SDS011;5277;48.722;8.736;2023-06-22T03:23:15;8.45;;;6.60;;
10458;SDS011;5277;48.722;8.736;2023-06-22T03:25:42;9.25;;;6.97;;
10458;SDS011;5277;48.722;8.736;2023-06-22T03:28:09;10.02;;;6.57;;
10458;SDS011;5277;48.722;8.736;2023-06-22T03:30:35;9.23;;;6.53;;
10458;SDS011;5277;48.722;8.736;2023-06-22T03:33:01;7.38;;;6.50;;
10458;SDS011;5277;48.722;8.736;2023-06-22T03:35:27;9.15;;;6.68;;
10458;SDS011;5277;48.722;8.736;2023-06-22T03:37:53;8.38;;;6.25;;
10458;SDS011;5277;48.722;8.736;2023-06-22T03:40:18;10.10;;;6.97;;
10458;SDS011;5277;48.722;8.736;2023-06-22T03:42:44;8.75;;;6.68;;
10458;SDS011;5277;48.722;8.736;2023-06-22T03:45:10;8.52;;;7.22;;
10458;SDS011;5277;48.722;8.736;2023-06-22T03:47:37;10.23;;;7.38;;
10458;SDS011;5277;48.722;8.736;2023-06-22T03:50:03;8.30;;;6.65;;
10458;SDS011;5277;48.722;8.736;2023-06-22T03:52:29;11.85;;;7.07;;
10458;SDS011;5277;48.722;8.736;2023-06-22T03:54:55;9.00;;;6.95;;
10458;SDS011;5277;48.722;8.736;2023-06-22T03:57:21;10.95;;;6.93;;
10458;SDS011;5277;48.722;8.736;2023-06-22T03:59:47;9.48;;;7.22;;
10458;SDS011;5277;48.722;8.736;2023-06-22T04:02:12;12.98;;;6.63;;
10458;SDS011;5277;48.722;8.736;2023-06-22T04:04:38;10.30;;;6.78;;
10458;SDS011;5277;48.722;8.736;2023-06-22T04:07:04;8.35;;;7.30;;
10458;SDS011;5277;48.722;8.736;2023-06-22T04:09:30;9.98;;;6.93;;
10458;SDS011;5277;48.722;8.736;2023-06-22T04:11:56;8.70;;;7.13;;
10458;SDS011;5277;48.722;8.736;2023-06-22T04:14:21;11.85;;;6.93;;
10458;SDS011;5277;48.722;8.736;2023-06-22T04:16:47;7.90;;;7.07;;
10458;SDS011;5277;48.722;8.736;2023-06-22T04:19:13;10.65;;;6.63;;
10458;SDS011;5277;48.722;8.736;2023-06-22T04:21:42;12.70;;;7.38;;
10458;SDS011;5277;48.722;8.736;2023-06-22T04:24:09;9.00;;;7.00;;
10458;SDS011;5277;48.722;8.736;2023-06-22T04:26:35;8.95;;;6.30;;
10458;SDS011;5277;48.722;8.736;2023-06-22T04:29:02;10.93;;;6.95;;
10458;SDS011;5277;48.722;8.736;2023-06-22T04:31:30;7.32;;;6.53;;
10458;SDS011;5277;48.722;8.736;2023-06-22T04:33:57;9.27;;;6.25;;
10458;SDS011;5277;48.722;8.736;2023-06-22T04:36:30;8.65;;;6.55;;
10458;SDS011;5277;48.722;8.736;2023-06-22T04:39:01;8.88;;;6.93;;
10458;SDS011;5277;48.722;8.736;2023-06-22T04:41:27;8.88;;;6.88;;
10458;SDS011;5277;48.722;8.736;2023-06-22T04:43:53;7.93;;;6.45;;
10458;SDS011;5277;48.722;8.736;2023-06-22T04:46:24;9.00;;;6.90;;
10458;SDS011;5277;48.722;8.736;2023-06-22T04:48:50;7.93;;;6.50;;
10458;SDS011;5277;48.722;8.736;2023-06-22T04:51:16;10.13;;;6.38;;
10458;SDS011;5277;48.722;8.736;2023-06-22T04:53:44;9.98;;;6.80;;
10458;SDS011;5277;48.722;8.736;2023-06-22T04:56:10;7.40;;;6.30;;
10458;SDS011;5277;48.722;8.736;2023-06-22T04:58:36;15.32;;;7.20;;
10458;SDS011;5277;48.722;8.736;2023-06-22T05:01:02;8.30;;;7.00;;
10458;SDS011;5277;48.722;8.736;2023-06-22T05:03:28;7.50;;;6.70;;
10458;SDS011;5277;48.722;8.736;2023-06-22T05:05:54;10.18;;;6.80;;
10458;SDS011;5277;48.722;8.736;2023-06-22T05:08:20;10.48;;;6.97;;
10458;SDS011;5277;48.722;8.736;2023-06-22T05:10:45;9.00;;;6.70;;
10458;SDS011;5277;48.722;8.736;2023-06-22T05:13:11;7.88;;;7.00;;
10458;SDS011;5277;48.722;8.736;2023-06-22T05:15:36;10.38;;;7.22;;
10458;SDS011;5277;48.722;8.736;2023-06-22T05:18:05;8.63;;;7.00;;
10458;SDS011;5277;48.722;8.736;2023-06-22T05:20:31;11.98;;;7.20;;
10458;SDS011;5277;48.722;8.736;2023-06-22T05:22:57;8.88;;;6.57;;
10458;SDS011;5277;48.722;8.736;2023-06-22T05:25:22;8.65;;;7.38;;
10458;SDS011;5277;48.722;8.736;2023-06-22T05:27:48;10.45;;;7.15;;
10458;SDS011;5277;48.722;8.736;2023-06-22T05:30:16;8.20;;;7.00;;
10458;SDS011;5277;48.722;8.736;2023-06-22T05:32:43;9.45;;;6.78;;
10458;SDS011;5277;48.722;8.736;2023-06-22T05:35:09;10.45;;;7.30;;
10458;SDS011;5277;48.722;8.736;2023-06-22T05:37:34;9.90;;;6.57;;
10458;SDS011;5277;48.722;8.736;2023-06-22T05:40:00;11.30;;;7.60;;
10458;SDS011;5277;48.722;8.736;2023-06-22T05:42:25;8.60;;;6.65;;
10458;SDS011;5277;48.722;8.736;2023-06-22T05:44:52;9.20;;;6.45;;
10458;SDS011;5277;48.722;8.736;2023-06-22T05:47:18;8.07;;;7.13;;
10458;SDS011;5277;48.722;8.736;2023-06-22T05:49:44;10.30;;;6.82;;
10458;SDS011;5277;48.722;8.736;2023-06-22T05:52:09;8.50;;;6.80;;
10458;SDS011;5277;48.722;8.736;2023-06-22T05:54:35;8.23;;;6.30;;
10458;SDS011;5277;48.722;8.736;2023-06-22T05:57:00;8.23;;;6.00;;
10458;SDS011;5277;48.722;8.736;2023-06-22T05:59:26;10.13;;;6.28;;
10458;SDS011;5277;48.722;8.736;2023-06-22T06:01:52;9.35;;;6.50;;
10458;SDS011;5277;48.722;8.736;2023-06-22T06:04:17;8.48;;;7.28;;
10458;SDS011;5277;48.722;8.736;2023-06-22T06:06:43;9.35;;;6.72;;
10458;SDS011;5277;48.722;8.736;2023-06-22T06:09:09;8.50;;;6.68;;
10458;SDS011;5277;48.722;8.736;2023-06-22T06:11:36;9.00;;;6.35;;
10458;SDS011;5277;48.722;8.736;2023-06-22T06:14:02;9.50;;;6.07;;
10458;SDS011;5277;48.722;8.736;2023-06-22T06:16:27;10.45;;;6.05;;
10458;SDS011;5277;48.722;8.736;2023-06-22T06:18:53;11.18;;;6.15;;
10458;SDS011;5277;48.722;8.736;2023-06-22T06:21:20;9.15;;;6.47;;
10458;SDS011;5277;48.722;8.736;2023-06-22T06:23:46;15.93;;;6.28;;
10458;SDS011;5277;48.722;8.736;2023-06-22T06:26:12;15.50;;;6.30;;
10458;SDS011;5277;48.722;8.736;2023-06-22T06:28:38;8.05;;;5.93;;
10458;SDS011;5277;48.722;8.736;2023-06-22T06:31:03;11.43;;;6.07;;
10458;SDS011;5277;48.722;8.736;2023-06-22T06:33:32;12.45;;;6.57;;
10458;SDS011;5277;48.722;8.736;2023-06-22T06:35:57;12.70;;;7.13;;
10458;SDS011;5277;48.722;8.736;2023-06-22T06:38:26;9.82;;;5.82;;
10458;SDS011;5277;48.722;8.736;2023-06-22T06:40:52;10.30;;;6.05;;
10458;SDS011;5277;48.722;8.736;2023-06-22T06:43:17;10.02;;;6.32;;
10458;SDS011;5277;48.722;8.736;2023-06-22T06:45:43;11.25;;;6.05;;
10458;SDS011;5277;48.722;8.736;2023-06-22T06:48:09;7.65;;;5.65;;
10458;SDS011;5277;48.722;8.736;2023-06-22T06:50:35;8.75;;;6.00;;
10458;SDS011;5277;48.722;8.736;2023-06-22T06:53:00;6.43;;;5.70;;
10458;SDS011;5277;48.722;8.736;2023-06-22T06:55:26;7.63;;;5.68;;
10458;SDS011;5277;48.722;8.736;2023-06-22T06:57:51;9.38;;;5.63;;
10458;SDS011;5277;48.722;8.736;2023-06-22T07:00:17;6.85;;;5.22;;
10458;SDS011;5277;48.722;8.736;2023-06-22T07:02:44;6.82;;;5.57;;
10458;SDS011;5277;48.722;8.736;2023-06-22T07:05:10;10.63;;;5.25;;
10458;SDS011;5277;48.722;8.736;2023-06-22T07:07:37;6.78;;;4.70;;
10458;SDS011;5277;48.722;8.736;2023-06-22T07:10:03;8.82;;;5.10;;
10458;SDS011;5277;48.722;8.736;2023-06-22T07:12:32;9.75;;;4.78;;
10458;SDS011;5277;48.722;8.736;2023-06-22T07:15:05;8.10;;;4.57;;
10458;SDS011;5277;48.722;8.736;2023-06-22T07:17:35;7.75;;;4.85;;
10458;SDS011;5277;48.722;8.736;2023-06-22T07:20:02;8.15;;;4.68;;
10458;SDS011;5277;48.722;8.736;2023-06-22T07:22:34;9.63;;;5.93;;
10458;SDS011;5277;48.722;8.736;2023-06-22T07:25:00;8.10;;;4.95;;
10458;SDS011;5277;48.722;8.736;2023-06-22T07:27:29;10.40;;;4.53;;
10458;SDS011;5277;48.722;8.736;2023-06-22T07:30:00;8.95;;;4.40;;
10458;SDS011;5277;48.722;8.736;2023-06-22T07:32:25;6.20;;;4.20;;
10458;SDS011;5277;48.722;8.736;2023-06-22T07:34:51;8.98;;;4.50;;
10458;SDS011;5277;48.722;8.736;2023-06-22T07:37:16;8.75;;;4.65;;
10458;SDS011;5277;48.722;8.736;2023-06-22T07:39:42;7.90;;;4.57;;
10458;SDS011;5277;48.722;8.736;2023-06-22T07:42:14;6.00;;;4.45;;
10458;SDS011;5277;48.722;8.736;2023-06-22T07:44:43;6.05;;;3.80;;
10458;SDS011;5277;48.722;8.736;2023-06-22T07:47:09;7.60;;;4.35;;
10458;SDS011;5277;48.722;8.736;2023-06-22T07:49:34;6.53;;;3.88;;
10458;SDS011;5277;48.722;8.736;2023-06-22T07:52:00;6.72;;;4.45;;
10458;SDS011;5277;48.722;8.736;2023-06-22T07:54:26;6.28;;;4.25;;
10458;SDS011;5277;48.722;8.736;2023-06-22T07:56:52;6.68;;;4.20;;
10458;SDS011;5277;48.722;8.736;2023-06-22T07:59:18;8.02;;;4.05;;
10458;SDS011;5277;48.722;8.736;2023-06-22T08:01:44;6.40;;;4.28;;
10458;SDS011;5277;48.722;8.736;2023-06-22T08:04:09;11.30;;;4.43;;
10458;SDS011;5277;48.722;8.736;2023-06-22T08:06:35;10.38;;;4.55;;
10458;SDS011;5277;48.722;8.736;2023-06-22T08:09:00;8.23;;;4.13;;
10458;SDS011;5277;48.722;8.736;2023-06-22T08:11:26;7.38;;;4.20;;
10458;SDS011;5277;48.722;8.736;2023-06-22T08:13:52;9.60;;;4.15;;
10458;SDS011;5277;48.722;8.736;2023-06-22T08:16:18;12.63;;;4.55;;
10458;SDS011;5277;48.722;8.736;2023-06-22T08:18:43;8.77;;;5.30;;
10458;SDS011;5277;48.722;8.736;2023-06-22T08:21:09;8.60;;;4.82;;
10458;SDS011;5277;48.722;8.736;2023-06-22T08:23:36;7.45;;;4.60;;
10458;SDS011;5277;48.722;8.736;2023-06-22T08:26:01;10.13;;;4.63;;
10458;SDS011;5277;48.722;8.736;2023-06-22T08:28:27;8.30;;;4.80;;
10458;SDS011;5277;48.722;8.736;2023-06-22T08:30:52;5.85;;;4.20;;
10458;SDS011;5277;48.722;8.736;2023-06-22T08:33:18;8.90;;;4.38;;
10458;SDS011;5277;48.722;8.736;2023-06-22T08:35:43;5.65;;;3.92;;
10458;SDS011;5277;48.722;8.736;2023-06-22T08:38:09;10.15;;;4.97;;
10458;SDS011;5277;48.722;8.736;2023-06-22T08:40:40;9.15;;;4.63;;
10458;SDS011;5277;48.722;8.736;2023-06-22T08:43:06;7.65;;;4.63;;
10458;SDS011;5277;48.722;8.736;2023-06-22T08:45:31;7.40;;;4.32;;
10458;SDS011;5277;48.722;8.736;2023-06-22T08:47:57;5.93;;;4.63;;
10458;SDS011;5277;48.722;8.736;2023-06-22T08:50:22;8.30;;;4.70;;
10458;SDS011;5277;48.722;8.736;2023-06-22T08:52:48;6.65;;;4.43;;
10458;SDS011;5277;48.722;8.736;2023-06-22T08:55:13;6.22;;;4.35;;
10458;SDS011;5277;48.722;8.736;2023-06-22T08:57:39;10.57;;;5.32;;
10458;SDS011;5277;48.722;8.736;2023-06-22T09:00:06;7.28;;;4.63;;
10458;SDS011;5277;48.722;8.736;2023-06-22T09:02:40;5.18;;;3.83;;
10458;SDS011;5277;48.722;8.736;2023-06-22T09:05:05;7.57;;;4.40;;
10458;SDS011;5277;48.722;8.736;2023-06-22T09:07:31;8.43;;;4.50;;
10458;SDS011;5277;48.722;8.736;2023-06-22T09:09:57;9.15;;;5.05;;
10458;SDS011;5277;48.722;8.736;2023-06-22T09:12:22;8.07;;;5.00;;
10458;SDS011;5277;48.722;8.736;2023-06-22T09:14:51;6.50;;;4.35;;
10458;SDS011;5277;48.722;8.736;2023-06-22T09:17:16;9.98;;;4.50;;
10458;SDS011;5277;48.722;8.736;2023-06-22T09:19:42;8.45;;;4.65;;
10458;SDS011;5277;48.722;8.736;2023-06-22T09:22:08;11.10;;;5.05;;
10458;SDS011;5277;48.722;8.736;2023-06-22T09:24:33;9.00;;;4.20;;
10458;SDS011;5277;48.722;8.736;2023-06-22T09:26:59;9.20;;;5.00;;
10458;SDS011;5277;48.722;8.736;2023-06-22T09:29:25;10.52;;;4.93;;
10458;SDS011;5277;48.722;8.736;2023-06-22T09:31:50;8.15;;;4.28;;
10458;SDS011;5277;48.722;8.736;2023-06-22T09:34:18;8.73;;;4.60;;
10458;SDS011;5277;48.722;8.736;2023-06-22T09:36:45;11.38;;;5.07;;
10458;SDS011;5277;48.722;8.736;2023-06-22T09:39:11;8.63;;;4.93;;
10458;SDS011;5277;48.722;8.736;2023-06-22T09:41:36;7.68;;;4.13;;
10458;SDS011;5277;48.722;8.736;2023-06-22T09:44:02;9.38;;;4.85;;
10458;SDS011;5277;48.722;8.736;2023-06-22T09:46:28;9.10;;;4.47;;
10458;SDS011;5277;48.722;8.736;2023-06-22T09:48:53;5.68;;;4.22;;
10458;SDS011;5277;48.722;8.736;2023-06-22T09:51:19;9.50;;;4.78;;
10458;SDS011;5277;48.722;8.736;2023-06-22T09:53:46;8.68;;;4.65;;
10458;SDS011;5277;48.722;8.736;2023-06-22T09:56:12;8.13;;;4.90;;
10458;SDS011;5277;48.722;8.736;2023-06-22T09:58:43;10.82;;;4.75;;
10458;SDS011;5277;48.722;8.736;2023-06-22T10:01:09;5.80;;;4.63;;
10458;SDS011;5277;48.722;8.736;2023-06-22T10:03:35;7.65;;;4.47;;
10458;SDS011;5277;48.722;8.736;2023-06-22T10:06:02;7.93;;;4.97;;
10458;SDS011;5277;48.722;8.736;2023-06-22T10:08:28;11.20;;;5.15;;
10458;SDS011;5277;48.722;8.736;2023-06-22T10:10:53;7.95;;;4.65;;
10458;SDS011;5277;48.722;8.736;2023-06-22T10:13:19;12.75;;;4.60;;
10458;SDS011;5277;48.722;8.736;2023-06-22T10:15:45;8.48;;;4.85;;
10458;SDS011;5277;48.722;8.736;2023-06-22T10:18:15;7.00;;;4.10;;
10458;SDS011;5277;48.722;8.736;2023-06-22T10:20:41;7.75;;;4.38;;
10458;SDS011;5277;48.722;8.736;2023-06-22T10:23:07;10.60;;;4.57;;
10458;SDS011;5277;48.722;8.736;2023-06-22T10:25:32;7.55;;;4.82;;
10458;SDS011;5277;48.722;8.736;2023-06-22T10:27:58;11.15;;;4.85;;
10458;SDS011;5277;48.722;8.736;2023-06-22T10:30:23;10.80;;;4.68;;
10458;SDS011;5277;48.722;8.736;2023-06-22T10:32:49;8.82;;;4.70;;
10458;SDS011;5277;48.722;8.736;2023-06-22T10:35:15;7.10;;;4.60;;
10458;SDS011;5277;48.722;8.736;2023-06-22T10:37:44;12.65;;;4.57;;
10458;SDS011;5277;48.722;8.736;2023-06-22T10:40:14;10.82;;;4.97;;
10458;SDS011;5277;48.722;8.736;2023-06-22T10:42:42;8.43;;;4.50;;
10458;SDS011;5277;48.722;8.736;2023-06-22T10:45:08;8.88;;;4.55;;
10458;SDS011;5277;48.722;8.736;2023-06-22T10:47:34;6.88;;;4.43;;
10458;SDS011;5277;48.722;8.736;2023-06-22T10:50:00;9.85;;;4.65;;
10458;SDS011;5277;48.722;8.736;2023-06-22T10:52:26;10.07;;;4.40;;
10458;SDS011;5277;48.722;8.736;2023-06-22T10:54:52;9.50;;;4.82;;
10458;SDS011;5277;48.722;8.736;2023-06-22T10:57:18;10.30;;;4.60;;
10458;SDS011;5277;48.722;8.736;2023-06-22T10:59:43;8.85;;;4.88;;
10458;SDS011;5277;48.722;8.736;2023-06-22T11:02:09;10.05;;;4.75;;
10458;SDS011;5277;48.722;8.736;2023-06-22T11:04:34;9.70;;;4.47;;
10458;SDS011;5277;48.722;8.736;2023-06-22T11:07:00;10.82;;;4.53;;
10458;SDS011;5277;48.722;8.736;2023-06-22T11:09:26;9.45;;;4.90;;
10458;SDS011;5277;48.722;8.736;2023-06-22T11:11:52;7.57;;;5.05;;
10458;SDS011;5277;48.722;8.736;2023-06-22T11:14:21;11.90;;;4.47;;
10458;SDS011;5277;48.722;8.736;2023-06-22T11:16:47;14.02;;;4.82;;
10458;SDS011;5277;48.722;8.736;2023-06-22T11:19:13;7.93;;;4.97;;
10458;SDS011;5277;48.722;8.736;2023-06-22T11:21:38;8.20;;;4.47;;
10458;SDS011;5277;48.722;8.736;2023-06-22T11:24:04;6.45;;;4.13;;
10458;SDS011;5277;48.722;8.736;2023-06-22T11:26:30;10.30;;;5.65;;
10458;SDS011;5277;48.722;8.736;2023-06-22T11:28:56;10.07;;;5.40;;
10458;SDS011;5277;48.722;8.736;2023-06-22T11:31:22;11.05;;;4.70;;
10458;SDS011;5277;48.722;8.736;2023-06-22T11:33:48;10.23;;;5.15;;
10458;SDS011;5277;48.722;8.736;2023-06-22T11:36:13;11.82;;;4.75;;
10458;SDS011;5277;48.722;8.736;2023-06-22T11:38:40;11.05;;;4.68;;
10458;SDS011;5277;48.722;8.736;2023-06-22T11:41:06;9.60;;;4.90;;
10458;SDS011;5277;48.722;8.736;2023-06-22T11:43:36;10.27;;;5.45;;
10458;SDS011;5277;48.722;8.736;2023-06-22T11:46:02;7.45;;;5.00;;
10458;SDS011;5277;48.722;8.736;2023-06-22T11:48:31;8.20;;;4.60;;
10458;SDS011;5277;48.722;8.736;2023-06-22T11:50:57;10.43;;;5.03;;
10458;SDS011;5277;48.722;8.736;2023-06-22T11:53:25;10.77;;;4.88;;
10458;SDS011;5277;48.722;8.736;2023-06-22T11:55:52;10.00;;;4.68;;
10458;SDS011;5277;48.722;8.736;2023-06-22T11:58:19;9.98;;;4.80;;
10458;SDS011;5277;48.722;8.736;2023-06-22T12:00:44;11.20;;;5.05;;
10458;SDS011;5277;48.722;8.736;2023-06-22T12:03:10;8.40;;;4.65;;
10458;SDS011;5277;48.722;8.736;2023-06-22T12:05:37;8.98;;;4.50;;
10458;SDS011;5277;48.722;8.736;2023-06-22T12:08:03;9.95;;;5.30;;
10458;SDS011;5277;48.722;8.736;2023-06-22T12:10:29;8.52;;;4.70;;
10458;SDS011;5277;48.722;8.736;2023-06-22T12:12:55;12.25;;;5.18;;
10458;SDS011;5277;48.722;8.736;2023-06-22T12:15:22;9.05;;;4.70;;
10458;SDS011;5277;48.722;8.736;2023-06-22T12:17:48;8.60;;;4.75;;
10458;SDS011;5277;48.722;8.736;2023-06-22T12:20:13;9.48;;;4.72;;
10458;SDS011;5277;48.722;8.736;2023-06-22T12:22:40;8.27;;;4.70;;
10458;SDS011;5277;48.722;8.736;2023-06-22T12:25:06;8.32;;;4.40;;
10458;SDS011;5277;48.722;8.736;2023-06-22T12:27:32;10.35;;;4.65;;
10458;SDS011;5277;48.722;8.736;2023-06-22T12:29:58;11.27;;;5.03;;
10458;SDS011;5277;48.722;8.736;2023-06-22T12:32:23;7.90;;;4.47;;
10458;SDS011;5277;48.722;8.736;2023-06-22T12:34:50;8.40;;;4.22;;
10458;SDS011;5277;48.722;8.736;2023-06-22T12:37:16;11.13;;;4.75;;
10458;SDS011;5277;48.722;8.736;2023-06-22T12:39:41;7.47;;;4.82;;
10458;SDS011;5277;48.722;8.736;2023-06-22T12:42:07;9.30;;;4.88;;
10458;SDS011;5277;48.722;8.736;2023-06-22T12:44:34;7.63;;;5.60;;
10458;SDS011;5277;48.722;8.736;2023-06-22T12:47:00;7.18;;;4.47;;
10458;SDS011;5277;48.722;8.736;2023-06-22T12:49:25;7.63;;;4.40;;
10458;SDS011;5277;48.722;8.736;2023-06-22T12:51:51;11.57;;;4.93;;
10458;SDS011;5277;48.722;8.736;2023-06-22T12:54:16;10.18;;;4.90;;
10458;SDS011;5277;48.722;8.736;2023-06-22T12:56:42;10.75;;;4.68;;
10458;SDS011;5277;48.722;8.736;2023-06-22T12:59:10;13.05;;;5.68;;
10458;SDS011;5277;48.722;8.736;2023-06-22T13:01:35;7.75;;;4.50;;
10458;SDS011;5277;48.722;8.736;2023-06-22T13:04:02;11.50;;;5.05;;
10458;SDS011;5277;48.722;8.736;2023-06-22T13:06:28;11.25;;;4.57;;
10458;SDS011;5277;48.722;8.736;2023-06-22T13:08:54;9.38;;;5.05;;
10458;SDS011;5277;48.722;8.736;2023-06-22T13:11:20;9.57;;;5.15;;
10458;SDS011;5277;48.722;8.736;2023-06-22T13:13:45;10.48;;;4.90;;
10458;SDS011;5277;48.722;8.736;2023-06-22T13:16:11;8.77;;;4.78;;
10458;SDS011;5277;48.722;8.736;2023-06-22T13:18:37;11.15;;;5.25;;
10458;SDS011;5277;48.722;8.736;2023-06-22T13:21:03;11.23;;;5.13;;
10458;SDS011;5277;48.722;8.736;2023-06-22T13:23:30;8.85;;;4.75;;
10458;SDS011;5277;48.722;8.736;2023-06-22T13:25:57;10.35;;;5.20;;
10458;SDS011;5277;48.722;8.736;2023-06-22T13:28:23;9.15;;;4.63;;
10458;SDS011;5277;48.722;8.736;2023-06-22T13:30:48;8.85;;;5.03;;
10458;SDS011;5277;48.722;8.736;2023-06-22T13:33:14;8.57;;;5.22;;
10458;SDS011;5277;48.722;8.736;2023-06-22T13:35:40;10.50;;;5.50;;
10458;SDS011;5277;48.722;8.736;2023-06-22T13:38:07;9.63;;;5.15;;
10458;SDS011;5277;48.722;8.736;2023-06-22T13:40:36;11.70;;;5.40;;
10458;SDS011;5277;48.722;8.736;2023-06-22T13:43:03;12.93;;;5.35;;
10458;SDS011;5277;48.722;8.736;2023-06-22T13:45:29;9.80;;;5.10;;
10458;SDS011;5277;48.722;8.736;2023-06-22T13:47:55;9.20;;;4.30;;
10458;SDS011;5277;48.722;8.736;2023-06-22T13:50:20;10.02;;;4.50;;
10458;SDS011;5277;48.722;8.736;2023-06-22T13:52:46;7.35;;;3.83;;
10458;SDS011;5277;48.722;8.736;2023-06-22T13:55:12;8.13;;;3.75;;
10458;SDS011;5277;48.722;8.736;2023-06-22T13:57:39;9.05;;;3.88;;
10458;SDS011;5277;48.722;8.736;2023-06-22T14:00:05;10.68;;;4.05;;
10458;SDS011;5277;48.722;8.736;2023-06-22T14:02:32;8.35;;;3.55;;
10458;SDS011;5277;48.722;8.736;2023-06-22T14:04:57;14.98;;;3.25;;
10458;SDS011;5277;48.722;8.736;2023-06-22T14:07:23;10.45;;;3.47;;
10458;SDS011;5277;48.722;8.736;2023-06-22T14:09:49;8.15;;;3.15;;
10458;SDS011;5277;48.722;8.736;2023-06-22T14:12:15;8.23;;;3.45;;
10458;SDS011;5277;48.722;8.736;2023-06-22T14:14:42;11.07;;;3.33;;
10458;SDS011;5277;48.722;8.736;2023-06-22T14:17:08;10.63;;;3.47;;
10458;SDS011;5277;48.722;8.736;2023-06-22T14:19:34;8.10;;;3.13;;
10458;SDS011;5277;48.722;8.736;2023-06-22T14:22:00;7.05;;;2.95;;
10458;SDS011;5277;48.722;8.736;2023-06-22T14:24:26;7.53;;;3.20;;
10458;SDS011;5277;48.722;8.736;2023-06-22T14:26:51;9.20;;;3.63;;
10458;SDS011;5277;48.722;8.736;2023-06-22T14:29:17;9.10;;;3.78;;
10458;SDS011;5277;48.722;8.736;2023-06-22T14:31:48;12.67;;;3.57;;
10458;SDS011;5277;48.722;8.736;2023-06-22T14:34:14;10.27;;;3.78;;
10458;SDS011;5277;48.722;8.736;2023-06-22T14:36:40;8.10;;;3.63;;
10458;SDS011;5277;48.722;8.736;2023-06-22T14:39:06;7.38;;;3.30;;
10458;SDS011;5277;48.722;8.736;2023-06-22T14:41:32;14.55;;;3.30;;
10458;SDS011;5277;48.722;8.736;2023-06-22T14:43:57;6.90;;;3.20;;
10458;SDS011;5277;48.722;8.736;2023-06-22T14:46:23;7.13;;;3.13;;
10458;SDS011;5277;48.722;8.736;2023-06-22T14:48:49;8.68;;;3.47;;
10458;SDS011;5277;48.722;8.736;2023-06-22T14:51:15;10.00;;;3.20;;
10458;SDS011;5277;48.722;8.736;2023-06-22T14:53:42;6.00;;;2.75;;
10458;SDS011;5277;48.722;8.736;2023-06-22T14:56:08;6.72;;;2.90;;
10458;SDS011;5277;48.722;8.736;2023-06-22T14:58:34;11.50;;;3.70;;
10458;SDS011;5277;48.722;8.736;2023-06-22T15:01:02;11.18;;;3.90;;
10458;SDS011;5277;48.722;8.736;2023-06-22T15:03:29;10.02;;;3.53;;